sensor_id;sensor_type;location;lat;lon;timestamp;P1;durP1;ratioP1;P2;durP2;ratioP2
55007;SDS011;40902;45.116;21.296;2024-03-23T00:53:19;20.33;;;12.43;;
55007;SDS011;40902;45.116;21.296;2024-03-23T00:55:45;16.08;;;12.00;;
55007;SDS011;40902;45.116;21.296;2024-03-23T00:58:11;18.02;;;11.93;;
55007;SDS011;40902;45.116;21.296;2024-03-23T01:00:37;17.63;;;12.00;;
55007;SDS011;40902;45.116;21.296;2024-03-23T01:03:02;18.08;;;12.35;;
55007;SDS011;40902;45.116;21.296;2024-03-23T01:05:29;20.38;;;12.55;;
55007;SDS011;40902;45.116;21.296;2024-03-23T01:07:54;19.65;;;12.82;;
55007;SDS011;40902;45.116;21.296;2024-03-23T01:10:20;17.08;;;11.90;;
55007;SDS011;40902;45.116;21.296;2024-03-23T01:12:46;18.13;;;11.85;;
55007;SDS011;40902;45.116;21.296;2024-03-23T01:15:12;17.40;;;12.00;;
55007;SDS011;40902;45.116;21.296;2024-03-23T01:17:38;21.00;;;12.93;;
55007;SDS011;40902;45.116;21.296;2024-03-23T01:20:03;17.00;;;12.02;;
55007;SDS011;40902;45.116;21.296;2024-03-23T01:22:31;18.05;;;12.52;;
55007;SDS011;40902;45.116;21.296;2024-03-23T01:24:58;19.77;;;12.52;;
55007;SDS011;40902;45.116;21.296;2024-03-23T01:27:24;18.38;;;12.55;;
55007;SDS011;40902;45.116;21.296;2024-03-23T01:29:50;16.50;;;11.98;;
55007;SDS011;40902;45.116;21.296;2024-03-23T01:32:17;17.67;;;12.23;;
55007;SDS011;40902;45.116;21.296;2024-03-23T01:34:44;16.67;;;11.75;;
55007;SDS011;40902;45.116;21.296;2024-03-23T01:37:10;16.17;;;12.10;;
55007;SDS011;40902;45.116;21.296;2024-03-23T01:39:35;19.60;;;11.77;;
55007;SDS011;40902;45.116;21.296;2024-03-23T01:42:01;18.42;;;11.73;;
55007;SDS011;40902;45.116;21.296;2024-03-23T01:44:27;17.17;;;12.32;;
55007;SDS011;40902;45.116;21.296;2024-03-23T01:46:53;16.85;;;11.82;;
55007;SDS011;40902;45.116;21.296;2024-03-23T01:49:20;17.02;;;11.55;;
55007;SDS011;40902;45.116;21.296;2024-03-23T01:51:46;18.05;;;12.40;;
55007;SDS011;40902;45.116;21.296;2024-03-23T01:54:11;19.10;;;11.70;;
55007;SDS011;40902;45.116;21.296;2024-03-23T01:56:38;18.33;;;12.05;;
55007;SDS011;40902;45.116;21.296;2024-03-23T01:59:04;19.67;;;12.27;;
55007;SDS011;40902;45.116;21.296;2024-03-23T02:01:37;15.55;;;11.48;;
55007;SDS011;40902;45.116;21.296;2024-03-23T02:04:02;17.20;;;12.32;;
55007;SDS011;40902;45.116;21.296;2024-03-23T02:06:28;20.38;;;11.57;;
55007;SDS011;40902;45.116;21.296;2024-03-23T02:08:55;14.73;;;11.10;;
55007;SDS011;40902;45.116;21.296;2024-03-23T02:11:20;17.05;;;11.68;;
55007;SDS011;40902;45.116;21.296;2024-03-23T02:13:46;16.52;;;11.52;;
55007;SDS011;40902;45.116;21.296;2024-03-23T02:16:13;17.10;;;11.38;;
55007;SDS011;40902;45.116;21.296;2024-03-23T02:18:39;16.23;;;11.95;;
55007;SDS011;40902;45.116;21.296;2024-03-23T02:21:05;16.17;;;11.60;;
55007;SDS011;40902;45.116;21.296;2024-03-23T02:23:31;16.90;;;12.18;;
55007;SDS011;40902;45.116;21.296;2024-03-23T02:25:57;20.55;;;12.70;;
55007;SDS011;40902;45.116;21.296;2024-03-23T02:28:23;15.20;;;10.93;;
55007;SDS011;40902;45.116;21.296;2024-03-23T02:30:49;16.23;;;12.20;;
55007;SDS011;40902;45.116;21.296;2024-03-23T02:33:15;18.30;;;10.90;;
55007;SDS011;40902;45.116;21.296;2024-03-23T02:35:42;17.48;;;12.07;;
55007;SDS011;40902;45.116;21.296;2024-03-23T02:38:08;15.88;;;11.48;;
55007;SDS011;40902;45.116;21.296;2024-03-23T02:40:34;14.90;;;10.90;;
55007;SDS011;40902;45.116;21.296;2024-03-23T02:43:02;16.15;;;10.95;;
55007;SDS011;40902;45.116;21.296;2024-03-23T02:45:28;15.65;;;11.18;;
55007;SDS011;40902;45.116;21.296;2024-03-23T02:47:54;15.50;;;11.25;;
55007;SDS011;40902;45.116;21.296;2024-03-23T02:50:20;15.80;;;11.50;;
55007;SDS011;40902;45.116;21.296;2024-03-23T02:52:47;15.52;;;10.93;;
55007;SDS011;40902;45.116;21.296;2024-03-23T02:55:13;15.40;;;11.10;;
55007;SDS011;40902;45.116;21.296;2024-03-23T02:57:40;16.17;;;11.93;;
55007;SDS011;40902;45.116;21.296;2024-03-23T03:00:06;17.88;;;11.60;;
55007;SDS011;40902;45.116;21.296;2024-03-23T03:02:33;16.60;;;11.35;;
55007;SDS011;40902;45.116;21.296;2024-03-23T03:04:59;18.45;;;11.73;;
55007;SDS011;40902;45.116;21.296;2024-03-23T03:07:25;16.05;;;10.70;;
55007;SDS011;40902;45.116;21.296;2024-03-23T03:09:51;16.15;;;11.20;;
55007;SDS011;40902;45.116;21.296;2024-03-23T03:12:17;16.63;;;11.05;;
55007;SDS011;40902;45.116;21.296;2024-03-23T03:14:46;17.30;;;10.68;;
55007;SDS011;40902;45.116;21.296;2024-03-23T03:17:11;15.68;;;10.43;;
55007;SDS011;40902;45.116;21.296;2024-03-23T03:19:38;16.27;;;10.70;;
55007;SDS011;40902;45.116;21.296;2024-03-23T03:22:04;13.60;;;10.00;;
55007;SDS011;40902;45.116;21.296;2024-03-23T03:24:30;16.58;;;11.23;;
55007;SDS011;40902;45.116;21.296;2024-03-23T03:26:55;16.35;;;10.10;;
55007;SDS011;40902;45.116;21.296;2024-03-23T03:29:23;15.93;;;11.18;;
55007;SDS011;40902;45.116;21.296;2024-03-23T03:31:49;15.95;;;10.82;;
55007;SDS011;40902;45.116;21.296;2024-03-23T03:34:15;17.45;;;10.98;;
55007;SDS011;40902;45.116;21.296;2024-03-23T03:36:41;14.90;;;10.70;;
55007;SDS011;40902;45.116;21.296;2024-03-23T03:39:07;14.40;;;10.18;;
55007;SDS011;40902;45.116;21.296;2024-03-23T03:41:33;17.67;;;10.93;;
55007;SDS011;40902;45.116;21.296;2024-03-23T03:43:58;15.02;;;11.25;;
55007;SDS011;40902;45.116;21.296;2024-03-23T03:46:27;18.20;;;11.50;;
55007;SDS011;40902;45.116;21.296;2024-03-23T03:48:56;14.98;;;10.45;;
55007;SDS011;40902;45.116;21.296;2024-03-23T03:51:22;18.75;;;11.20;;
55007;SDS011;40902;45.116;21.296;2024-03-23T03:53:48;15.70;;;10.00;;
55007;SDS011;40902;45.116;21.296;2024-03-23T03:56:14;15.57;;;10.13;;
55007;SDS011;40902;45.116;21.296;2024-03-23T03:58:40;13.55;;;9.75;;
55007;SDS011;40902;45.116;21.296;2024-03-23T04:01:06;16.42;;;10.82;;
55007;SDS011;40902;45.116;21.296;2024-03-23T04:03:34;14.65;;;10.57;;
55007;SDS011;40902;45.116;21.296;2024-03-23T04:06:00;14.20;;;10.27;;
55007;SDS011;40902;45.116;21.296;2024-03-23T04:08:26;15.65;;;10.25;;
55007;SDS011;40902;45.116;21.296;2024-03-23T04:10:52;15.15;;;9.98;;
55007;SDS011;40902;45.116;21.296;2024-03-23T04:13:19;15.20;;;10.63;;
55007;SDS011;40902;45.116;21.296;2024-03-23T04:15:45;15.07;;;10.63;;
55007;SDS011;40902;45.116;21.296;2024-03-23T04:18:11;16.85;;;10.38;;
55007;SDS011;40902;45.116;21.296;2024-03-23T04:20:37;16.67;;;10.75;;
55007;SDS011;40902;45.116;21.296;2024-03-23T04:23:03;14.65;;;10.27;;
55007;SDS011;40902;45.116;21.296;2024-03-23T04:25:29;15.95;;;9.65;;
55007;SDS011;40902;45.116;21.296;2024-03-23T04:27:56;15.93;;;10.18;;
55007;SDS011;40902;45.116;21.296;2024-03-23T04:30:22;14.40;;;10.35;;
55007;SDS011;40902;45.116;21.296;2024-03-23T04:32:50;12.75;;;9.70;;
55007;SDS011;40902;45.116;21.296;2024-03-23T04:35:16;15.70;;;10.70;;
55007;SDS011;40902;45.116;21.296;2024-03-23T04:37:42;15.88;;;10.48;;
55007;SDS011;40902;45.116;21.296;2024-03-23T04:40:08;13.25;;;8.98;;
55007;SDS011;40902;45.116;21.296;2024-03-23T04:42:36;15.18;;;9.82;;
55007;SDS011;40902;45.116;21.296;2024-03-23T04:45:02;13.32;;;9.25;;
55007;SDS011;40902;45.116;21.296;2024-03-23T04:47:29;16.40;;;9.68;;
55007;SDS011;40902;45.116;21.296;2024-03-23T04:49:55;14.82;;;9.77;;
55007;SDS011;40902;45.116;21.296;2024-03-23T04:52:21;14.05;;;10.18;;
55007;SDS011;40902;45.116;21.296;2024-03-23T04:54:47;14.05;;;9.93;;
55007;SDS011;40902;45.116;21.296;2024-03-23T04:57:13;15.23;;;9.45;;
55007;SDS011;40902;45.116;21.296;2024-03-23T04:59:41;15.48;;;9.70;;
55007;SDS011;40902;45.116;21.296;2024-03-23T05:02:07;13.80;;;10.18;;
55007;SDS011;40902;45.116;21.296;2024-03-23T05:04:35;14.98;;;10.23;;
55007;SDS011;40902;45.116;21.296;2024-03-23T05:07:02;16.77;;;10.20;;
55007;SDS011;40902;45.116;21.296;2024-03-23T05:09:29;15.40;;;10.07;;
55007;SDS011;40902;45.116;21.296;2024-03-23T05:11:56;15.07;;;10.25;;
55007;SDS011;40902;45.116;21.296;2024-03-23T05:14:22;15.45;;;10.38;;
55007;SDS011;40902;45.116;21.296;2024-03-23T05:16:48;15.27;;;10.25;;
55007;SDS011;40902;45.116;21.296;2024-03-23T05:19:14;16.23;;;10.57;;
55007;SDS011;40902;45.116;21.296;2024-03-23T05:21:40;14.55;;;10.18;;
55007;SDS011;40902;45.116;21.296;2024-03-23T05:24:05;16.05;;;10.20;;
55007;SDS011;40902;45.116;21.296;2024-03-23T05:26:31;14.23;;;9.63;;
55007;SDS011;40902;45.116;21.296;2024-03-23T05:28:59;14.85;;;10.15;;
55007;SDS011;40902;45.116;21.296;2024-03-23T05:31:25;13.13;;;9.82;;
55007;SDS011;40902;45.116;21.296;2024-03-23T05:33:52;13.93;;;9.68;;
55007;SDS011;40902;45.116;21.296;2024-03-23T05:36:18;17.45;;;10.85;;
55007;SDS011;40902;45.116;21.296;2024-03-23T05:38:44;14.52;;;10.45;;
55007;SDS011;40902;45.116;21.296;2024-03-23T05:41:10;13.75;;;9.52;;
55007;SDS011;40902;45.116;21.296;2024-03-23T05:43:36;13.50;;;9.88;;
55007;SDS011;40902;45.116;21.296;2024-03-23T05:46:02;15.15;;;10.35;;
55007;SDS011;40902;45.116;21.296;2024-03-23T05:48:30;16.48;;;10.25;;
55007;SDS011;40902;45.116;21.296;2024-03-23T05:50:56;13.80;;;10.13;;
55007;SDS011;40902;45.116;21.296;2024-03-23T05:53:23;17.20;;;10.75;;
55007;SDS011;40902;45.116;21.296;2024-03-23T05:55:49;17.27;;;10.20;;
55007;SDS011;40902;45.116;21.296;2024-03-23T05:58:16;16.58;;;10.10;;
55007;SDS011;40902;45.116;21.296;2024-03-23T06:00:43;16.92;;;10.63;;
55007;SDS011;40902;45.116;21.296;2024-03-23T06:03:09;13.85;;;9.60;;
55007;SDS011;40902;45.116;21.296;2024-03-23T06:05:36;15.63;;;9.25;;
55007;SDS011;40902;45.116;21.296;2024-03-23T06:08:02;14.57;;;9.98;;
55007;SDS011;40902;45.116;21.296;2024-03-23T06:10:28;12.98;;;9.60;;
55007;SDS011;40902;45.116;21.296;2024-03-23T06:12:54;15.10;;;10.13;;
55007;SDS011;40902;45.116;21.296;2024-03-23T06:15:21;14.60;;;9.50;;
55007;SDS011;40902;45.116;21.296;2024-03-23T06:17:47;15.02;;;10.48;;
55007;SDS011;40902;45.116;21.296;2024-03-23T06:20:13;13.30;;;9.88;;
55007;SDS011;40902;45.116;21.296;2024-03-23T06:22:40;12.45;;;9.52;;
55007;SDS011;40902;45.116;21.296;2024-03-23T06:25:06;15.82;;;10.13;;
55007;SDS011;40902;45.116;21.296;2024-03-23T06:27:32;16.00;;;10.23;;
55007;SDS011;40902;45.116;21.296;2024-03-23T06:29:59;14.60;;;9.77;;
55007;SDS011;40902;45.116;21.296;2024-03-23T06:32:25;13.43;;;9.90;;
55007;SDS011;40902;45.116;21.296;2024-03-23T06:34:51;12.85;;;8.88;;
55007;SDS011;40902;45.116;21.296;2024-03-23T06:37:17;14.90;;;10.05;;
55007;SDS011;40902;45.116;21.296;2024-03-23T06:39:45;13.82;;;9.93;;
55007;SDS011;40902;45.116;21.296;2024-03-23T06:42:12;14.02;;;10.25;;
55007;SDS011;40902;45.116;21.296;2024-03-23T06:44:38;14.02;;;9.32;;
55007;SDS011;40902;45.116;21.296;2024-03-23T06:47:04;14.98;;;9.45;;
55007;SDS011;40902;45.116;21.296;2024-03-23T06:49:30;16.17;;;9.55;;
55007;SDS011;40902;45.116;21.296;2024-03-23T06:51:56;14.65;;;9.43;;
55007;SDS011;40902;45.116;21.296;2024-03-23T06:54:22;13.85;;;9.18;;
55007;SDS011;40902;45.116;21.296;2024-03-23T06:56:49;13.20;;;8.93;;
55007;SDS011;40902;45.116;21.296;2024-03-23T06:59:15;14.20;;;9.05;;
55007;SDS011;40902;45.116;21.296;2024-03-23T07:01:41;14.93;;;9.57;;
55007;SDS011;40902;45.116;21.296;2024-03-23T07:04:07;14.95;;;9.13;;
55007;SDS011;40902;45.116;21.296;2024-03-23T07:06:33;13.80;;;8.93;;
55007;SDS011;40902;45.116;21.296;2024-03-23T07:08:59;13.73;;;8.95;;
55007;SDS011;40902;45.116;21.296;2024-03-23T07:11:24;13.68;;;8.95;;
55007;SDS011;40902;45.116;21.296;2024-03-23T07:13:51;13.82;;;9.50;;
55007;SDS011;40902;45.116;21.296;2024-03-23T07:16:17;12.85;;;9.50;;
55007;SDS011;40902;45.116;21.296;2024-03-23T07:18:44;14.43;;;9.73;;
55007;SDS011;40902;45.116;21.296;2024-03-23T07:21:10;14.32;;;9.50;;
55007;SDS011;40902;45.116;21.296;2024-03-23T07:23:36;13.73;;;9.00;;
55007;SDS011;40902;45.116;21.296;2024-03-23T07:26:03;14.32;;;8.98;;
55007;SDS011;40902;45.116;21.296;2024-03-23T07:28:30;13.77;;;9.32;;
55007;SDS011;40902;45.116;21.296;2024-03-23T07:31:07;16.63;;;9.02;;
55007;SDS011;40902;45.116;21.296;2024-03-23T07:33:36;11.20;;;8.25;;
55007;SDS011;40902;45.116;21.296;2024-03-23T07:36:07;12.63;;;8.55;;
55007;SDS011;40902;45.116;21.296;2024-03-23T07:38:33;13.88;;;9.18;;
55007;SDS011;40902;45.116;21.296;2024-03-23T07:41:02;14.23;;;9.75;;
55007;SDS011;40902;45.116;21.296;2024-03-23T07:43:35;13.13;;;9.38;;
55007;SDS011;40902;45.116;21.296;2024-03-23T07:46:05;15.65;;;8.70;;
55007;SDS011;40902;45.116;21.296;2024-03-23T07:48:31;12.60;;;8.93;;
55007;SDS011;40902;45.116;21.296;2024-03-23T07:50:58;14.45;;;10.63;;
55007;SDS011;40902;45.116;21.296;2024-03-23T07:53:33;13.60;;;9.70;;
55007;SDS011;40902;45.116;21.296;2024-03-23T07:56:01;16.27;;;10.70;;
55007;SDS011;40902;45.116;21.296;2024-03-23T07:58:31;16.10;;;10.82;;
55007;SDS011;40902;45.116;21.296;2024-03-23T08:01:02;14.70;;;10.60;;
55007;SDS011;40902;45.116;21.296;2024-03-23T08:03:29;16.27;;;10.98;;
55007;SDS011;40902;45.116;21.296;2024-03-23T08:05:55;17.33;;;10.45;;
55007;SDS011;40902;45.116;21.296;2024-03-23T08:08:21;16.52;;;10.95;;
55007;SDS011;40902;45.116;21.296;2024-03-23T08:10:50;16.60;;;10.73;;
55007;SDS011;40902;45.116;21.296;2024-03-23T08:13:17;14.13;;;9.77;;
55007;SDS011;40902;45.116;21.296;2024-03-23T08:15:43;15.18;;;9.52;;
55007;SDS011;40902;45.116;21.296;2024-03-23T08:18:12;18.05;;;9.60;;
55007;SDS011;40902;45.116;21.296;2024-03-23T08:20:40;14.85;;;9.57;;
55007;SDS011;40902;45.116;21.296;2024-03-23T08:23:06;15.60;;;9.60;;
55007;SDS011;40902;45.116;21.296;2024-03-23T08:25:33;14.93;;;9.25;;
55007;SDS011;40902;45.116;21.296;2024-03-23T08:27:59;14.93;;;9.55;;
55007;SDS011;40902;45.116;21.296;2024-03-23T08:30:25;17.63;;;12.18;;
55007;SDS011;40902;45.116;21.296;2024-03-23T08:32:51;16.15;;;11.18;;
55007;SDS011;40902;45.116;21.296;2024-03-23T08:35:17;15.02;;;9.65;;
55007;SDS011;40902;45.116;21.296;2024-03-23T08:37:44;13.32;;;8.73;;
55007;SDS011;40902;45.116;21.296;2024-03-23T08:40:10;12.05;;;8.35;;
55007;SDS011;40902;45.116;21.296;2024-03-23T08:42:36;15.60;;;9.50;;
55007;SDS011;40902;45.116;21.296;2024-03-23T08:45:01;13.80;;;8.85;;
55007;SDS011;40902;45.116;21.296;2024-03-23T08:47:27;12.02;;;8.55;;
55007;SDS011;40902;45.116;21.296;2024-03-23T08:49:53;14.73;;;8.70;;
55007;SDS011;40902;45.116;21.296;2024-03-23T08:52:20;16.52;;;8.68;;
55007;SDS011;40902;45.116;21.296;2024-03-23T08:54:48;14.48;;;8.32;;
55007;SDS011;40902;45.116;21.296;2024-03-23T08:57:14;12.70;;;8.88;;
55007;SDS011;40902;45.116;21.296;2024-03-23T08:59:39;12.48;;;9.15;;
55007;SDS011;40902;45.116;21.296;2024-03-23T09:02:08;14.60;;;8.52;;
55007;SDS011;40902;45.116;21.296;2024-03-23T09:04:34;17.90;;;8.85;;
55007;SDS011;40902;45.116;21.296;2024-03-23T09:07:00;15.60;;;9.15;;
55007;SDS011;40902;45.116;21.296;2024-03-23T09:09:26;16.52;;;8.90;;
55007;SDS011;40902;45.116;21.296;2024-03-23T09:11:51;14.48;;;9.15;;
55007;SDS011;40902;45.116;21.296;2024-03-23T09:14:17;15.82;;;8.55;;
55007;SDS011;40902;45.116;21.296;2024-03-23T09:16:44;13.88;;;9.27;;
55007;SDS011;40902;45.116;21.296;2024-03-23T09:19:11;15.20;;;9.48;;
55007;SDS011;40902;45.116;21.296;2024-03-23T09:21:37;17.27;;;9.00;;
55007;SDS011;40902;45.116;21.296;2024-03-23T09:24:03;15.90;;;9.80;;
55007;SDS011;40902;45.116;21.296;2024-03-23T09:26:28;15.65;;;9.57;;
55007;SDS011;40902;45.116;21.296;2024-03-23T09:28:55;18.63;;;9.93;;
55007;SDS011;40902;45.116;21.296;2024-03-23T09:31:20;14.93;;;8.52;;
55007;SDS011;40902;45.116;21.296;2024-03-23T09:33:47;15.25;;;9.93;;
55007;SDS011;40902;45.116;21.296;2024-03-23T09:36:13;14.48;;;9.10;;
55007;SDS011;40902;45.116;21.296;2024-03-23T09:38:38;16.25;;;9.10;;
55007;SDS011;40902;45.116;21.296;2024-03-23T09:41:08;13.13;;;8.57;;
55007;SDS011;40902;45.116;21.296;2024-03-23T09:43:35;17.30;;;9.38;;
55007;SDS011;40902;45.116;21.296;2024-03-23T09:46:01;14.88;;;9.10;;
55007;SDS011;40902;45.116;21.296;2024-03-23T09:48:28;12.23;;;9.20;;
55007;SDS011;40902;45.116;21.296;2024-03-23T09:50:54;19.98;;;9.18;;
55007;SDS011;40902;45.116;21.296;2024-03-23T09:53:19;15.10;;;8.48;;
55007;SDS011;40902;45.116;21.296;2024-03-23T09:55:47;12.30;;;8.50;;
55007;SDS011;40902;45.116;21.296;2024-03-23T09:58:17;16.05;;;9.65;;
55007;SDS011;40902;45.116;21.296;2024-03-23T10:00:43;13.55;;;8.70;;
55007;SDS011;40902;45.116;21.296;2024-03-23T10:03:10;11.57;;;8.02;;
55007;SDS011;40902;45.116;21.296;2024-03-23T10:05:36;12.25;;;7.78;;
55007;SDS011;40902;45.116;21.296;2024-03-23T10:10:40;17.20;;;8.65;;
55007;SDS011;40902;45.116;21.296;2024-03-23T10:13:07;14.82;;;9.27;;
55007;SDS011;40902;45.116;21.296;2024-03-23T10:15:34;12.63;;;7.75;;
55007;SDS011;40902;45.116;21.296;2024-03-23T10:23:16;14.43;;;8.57;;
55007;SDS011;40902;45.116;21.296;2024-03-23T10:25:42;11.50;;;8.20;;
55007;SDS011;40902;45.116;21.296;2024-03-23T10:28:09;18.42;;;7.95;;
55007;SDS011;40902;45.116;21.296;2024-03-23T10:30:36;14.50;;;8.02;;
55007;SDS011;40902;45.116;21.296;2024-03-23T10:33:11;15.93;;;7.85;;
55007;SDS011;40902;45.116;21.296;2024-03-23T10:35:38;10.80;;;7.57;;
55007;SDS011;40902;45.116;21.296;2024-03-23T10:38:05;14.07;;;8.10;;
55007;SDS011;40902;45.116;21.296;2024-03-23T10:40:33;9.80;;;7.60;;
55007;SDS011;40902;45.116;21.296;2024-03-23T10:43:00;13.68;;;7.63;;
55007;SDS011;40902;45.116;21.296;2024-03-23T10:45:27;15.23;;;8.77;;
55007;SDS011;40902;45.116;21.296;2024-03-23T10:47:53;17.08;;;7.80;;
55007;SDS011;40902;45.116;21.296;2024-03-23T10:50:19;12.50;;;8.43;;
55007;SDS011;40902;45.116;21.296;2024-03-23T10:52:48;15.00;;;7.90;;
55007;SDS011;40902;45.116;21.296;2024-03-23T10:55:15;13.00;;;8.18;;
55007;SDS011;40902;45.116;21.296;2024-03-23T10:58:00;12.75;;;7.45;;
55007;SDS011;40902;45.116;21.296;2024-03-23T11:00:27;11.27;;;7.80;;
55007;SDS011;40902;45.116;21.296;2024-03-23T11:02:53;12.55;;;8.25;;
55007;SDS011;40902;45.116;21.296;2024-03-23T11:07:54;11.90;;;8.18;;
55007;SDS011;40902;45.116;21.296;2024-03-23T11:12:51;11.70;;;7.47;;
55007;SDS011;40902;45.116;21.296;2024-03-23T11:15:22;11.75;;;7.93;;
55007;SDS011;40902;45.116;21.296;2024-03-23T11:18:07;11.93;;;7.82;;
55007;SDS011;40902;45.116;21.296;2024-03-23T11:20:34;11.15;;;6.85;;
55007;SDS011;40902;45.116;21.296;2024-03-23T11:23:01;9.38;;;6.18;;
55007;SDS011;40902;45.116;21.296;2024-03-23T11:25:29;12.15;;;6.57;;
55007;SDS011;40902;45.116;21.296;2024-03-23T11:28:30;14.15;;;6.40;;
55007;SDS011;40902;45.116;21.296;2024-03-23T11:30:48;7.47;;;5.80;;
55007;SDS011;40902;45.116;21.296;2024-03-23T11:33:19;8.25;;;5.80;;
55007;SDS011;40902;45.116;21.296;2024-03-23T11:35:45;8.80;;;5.82;;
55007;SDS011;40902;45.116;21.296;2024-03-23T11:38:18;12.23;;;5.65;;
55007;SDS011;40902;45.116;21.296;2024-03-23T11:40:44;10.90;;;6.22;;
55007;SDS011;40902;45.116;21.296;2024-03-23T11:43:15;12.73;;;5.70;;
55007;SDS011;40902;45.116;21.296;2024-03-23T11:45:48;11.10;;;5.38;;
55007;SDS011;40902;45.116;21.296;2024-03-23T11:48:19;8.93;;;5.85;;
55007;SDS011;40902;45.116;21.296;2024-03-23T11:50:49;7.30;;;5.03;;
55007;SDS011;40902;45.116;21.296;2024-03-23T11:53:16;9.63;;;5.30;;
55007;SDS011;40902;45.116;21.296;2024-03-23T11:55:51;11.55;;;5.15;;
55007;SDS011;40902;45.116;21.296;2024-03-23T11:58:18;6.40;;;5.05;;
55007;SDS011;40902;45.116;21.296;2024-03-23T12:00:51;5.13;;;4.45;;
55007;SDS011;40902;45.116;21.296;2024-03-23T12:03:18;7.97;;;4.70;;
55007;SDS011;40902;45.116;21.296;2024-03-23T12:05:49;7.75;;;4.97;;
55007;SDS011;40902;45.116;21.296;2024-03-23T12:08:22;7.43;;;4.85;;
55007;SDS011;40902;45.116;21.296;2024-03-23T12:10:52;9.27;;;5.28;;
55007;SDS011;40902;45.116;21.296;2024-03-23T12:13:19;11.43;;;4.90;;
55007;SDS011;40902;45.116;21.296;2024-03-23T12:15:51;8.27;;;4.97;;
55007;SDS011;40902;45.116;21.296;2024-03-23T12:18:17;6.40;;;4.13;;
55007;SDS011;40902;45.116;21.296;2024-03-23T12:20:50;8.45;;;4.88;;
55007;SDS011;40902;45.116;21.296;2024-03-23T12:23:19;9.18;;;4.22;;
55007;SDS011;40902;45.116;21.296;2024-03-23T12:25:48;12.07;;;4.50;;
55007;SDS011;40902;45.116;21.296;2024-03-23T12:28:15;6.60;;;4.30;;
55007;SDS011;40902;45.116;21.296;2024-03-23T12:30:42;6.13;;;4.60;;
55007;SDS011;40902;45.116;21.296;2024-03-23T12:33:08;7.13;;;4.13;;
55007;SDS011;40902;45.116;21.296;2024-03-23T12:35:34;7.13;;;4.40;;
55007;SDS011;40902;45.116;21.296;2024-03-23T12:38:00;7.55;;;3.90;;
55007;SDS011;40902;45.116;21.296;2024-03-23T12:40:26;5.95;;;4.32;;
55007;SDS011;40902;45.116;21.296;2024-03-23T12:42:53;7.28;;;4.40;;
55007;SDS011;40902;45.116;21.296;2024-03-23T12:45:19;8.18;;;4.95;;
55007;SDS011;40902;45.116;21.296;2024-03-23T12:47:45;6.32;;;4.18;;
55007;SDS011;40902;45.116;21.296;2024-03-23T12:50:11;6.35;;;4.53;;
55007;SDS011;40902;45.116;21.296;2024-03-23T12:52:38;7.55;;;4.22;;
55007;SDS011;40902;45.116;21.296;2024-03-23T12:55:04;6.75;;;4.40;;
55007;SDS011;40902;45.116;21.296;2024-03-23T12:57:31;5.63;;;4.00;;
55007;SDS011;40902;45.116;21.296;2024-03-23T12:59:58;6.45;;;3.92;;
55007;SDS011;40902;45.116;21.296;2024-03-23T13:02:28;7.32;;;4.20;;
55007;SDS011;40902;45.116;21.296;2024-03-23T13:04:55;7.60;;;4.50;;
55007;SDS011;40902;45.116;21.296;2024-03-23T13:07:23;5.80;;;4.03;;
55007;SDS011;40902;45.116;21.296;2024-03-23T13:09:50;7.45;;;4.78;;
55007;SDS011;40902;45.116;21.296;2024-03-23T13:12:17;8.40;;;4.40;;
55007;SDS011;40902;45.116;21.296;2024-03-23T13:14:46;5.75;;;4.25;;
55007;SDS011;40902;45.116;21.296;2024-03-23T13:17:12;6.65;;;3.42;;
55007;SDS011;40902;45.116;21.296;2024-03-23T13:19:39;6.13;;;3.60;;
55007;SDS011;40902;45.116;21.296;2024-03-23T13:22:05;5.80;;;3.70;;
55007;SDS011;40902;45.116;21.296;2024-03-23T13:24:37;7.10;;;3.67;;
55007;SDS011;40902;45.116;21.296;2024-03-23T13:27:05;5.13;;;3.70;;
55007;SDS011;40902;45.116;21.296;2024-03-23T13:29:33;7.13;;;4.00;;
55007;SDS011;40902;45.116;21.296;2024-03-23T13:32:02;6.28;;;4.20;;
55007;SDS011;40902;45.116;21.296;2024-03-23T13:34:34;5.82;;;3.80;;
55007;SDS011;40902;45.116;21.296;2024-03-23T13:37:00;6.68;;;4.20;;
55007;SDS011;40902;45.116;21.296;2024-03-23T13:39:26;7.90;;;4.03;;
55007;SDS011;40902;45.116;21.296;2024-03-23T13:41:53;5.82;;;4.10;;
55007;SDS011;40902;45.116;21.296;2024-03-23T13:44:21;7.07;;;4.20;;
55007;SDS011;40902;45.116;21.296;2024-03-23T13:46:51;8.88;;;3.92;;
55007;SDS011;40902;45.116;21.296;2024-03-23T13:49:27;5.97;;;4.22;;
55007;SDS011;40902;45.116;21.296;2024-03-23T13:51:57;7.07;;;4.63;;
55007;SDS011;40902;45.116;21.296;2024-03-23T13:54:27;6.45;;;4.25;;
55007;SDS011;40902;45.116;21.296;2024-03-23T13:56:54;7.57;;;4.05;;
55007;SDS011;40902;45.116;21.296;2024-03-23T13:59:20;9.43;;;4.57;;
55007;SDS011;40902;45.116;21.296;2024-03-23T14:01:52;5.83;;;4.03;;
55007;SDS011;40902;45.116;21.296;2024-03-23T14:04:19;8.75;;;4.15;;
55007;SDS011;40902;45.116;21.296;2024-03-23T14:06:49;6.18;;;3.90;;
55007;SDS011;40902;45.116;21.296;2024-03-23T14:09:15;5.25;;;3.70;;
55007;SDS011;40902;45.116;21.296;2024-03-23T14:11:45;7.45;;;4.53;;
55007;SDS011;40902;45.116;21.296;2024-03-23T14:14:12;8.60;;;4.93;;
55007;SDS011;40902;45.116;21.296;2024-03-23T14:16:43;7.85;;;4.65;;
55007;SDS011;40902;45.116;21.296;2024-03-23T14:19:10;6.60;;;5.15;;
55007;SDS011;40902;45.116;21.296;2024-03-23T14:21:36;7.18;;;4.70;;
55007;SDS011;40902;45.116;21.296;2024-03-23T14:24:03;7.22;;;4.78;;
55007;SDS011;40902;45.116;21.296;2024-03-23T14:26:29;7.00;;;4.90;;
55007;SDS011;40902;45.116;21.296;2024-03-23T14:28:55;7.50;;;5.18;;
55007;SDS011;40902;45.116;21.296;2024-03-23T14:31:22;9.68;;;5.32;;
55007;SDS011;40902;45.116;21.296;2024-03-23T14:33:48;7.72;;;4.82;;
55007;SDS011;40902;45.116;21.296;2024-03-23T14:36:17;6.68;;;5.00;;
55007;SDS011;40902;45.116;21.296;2024-03-23T14:41:19;7.55;;;4.65;;
55007;SDS011;40902;45.116;21.296;2024-03-23T14:43:45;7.35;;;4.88;;
55007;SDS011;40902;45.116;21.296;2024-03-23T14:46:14;9.30;;;4.90;;
55007;SDS011;40902;45.116;21.296;2024-03-23T14:48:44;10.10;;;5.40;;
55007;SDS011;40902;45.116;21.296;2024-03-23T14:51:11;6.70;;;4.80;;
55007;SDS011;40902;45.116;21.296;2024-03-23T14:53:40;8.60;;;5.32;;
55007;SDS011;40902;45.116;21.296;2024-03-23T14:56:09;7.03;;;4.40;;
55007;SDS011;40902;45.116;21.296;2024-03-23T14:58:38;9.00;;;4.65;;
55007;SDS011;40902;45.116;21.296;2024-03-23T15:01:05;9.10;;;5.20;;
55007;SDS011;40902;45.116;21.296;2024-03-23T15:03:35;10.68;;;5.60;;
55007;SDS011;40902;45.116;21.296;2024-03-23T15:06:01;8.70;;;5.00;;
55007;SDS011;40902;45.116;21.296;2024-03-23T15:08:27;10.55;;;5.30;;
55007;SDS011;40902;45.116;21.296;2024-03-23T15:10:59;10.02;;;5.63;;
55007;SDS011;40902;45.116;21.296;2024-03-23T15:13:30;9.98;;;6.07;;
55007;SDS011;40902;45.116;21.296;2024-03-23T15:15:58;7.22;;;5.03;;
55007;SDS011;40902;45.116;21.296;2024-03-23T15:18:30;9.50;;;5.50;;
55007;SDS011;40902;45.116;21.296;2024-03-23T15:20:58;9.13;;;5.15;;
55007;SDS011;40902;45.116;21.296;2024-03-23T15:23:27;7.68;;;5.38;;
55007;SDS011;40902;45.116;21.296;2024-03-23T15:25:58;8.18;;;5.05;;
55007;SDS011;40902;45.116;21.296;2024-03-23T15:28:24;8.70;;;5.20;;